sensor_id;sensor_type;location;lat;lon;timestamp;P1;durP1;ratioP1;P2;durP2;ratioP2
10416;SDS011;62605;49.432;8.680;2023-08-06T00:00:52;2.30;;;1.55;;
10416;SDS011;62605;49.432;8.680;2023-08-06T00:03:18;1.80;;;1.70;;
10416;SDS011;62605;49.432;8.680;2023-08-06T00:05:47;2.47;;;1.88;;
10416;SDS011;62605;49.432;8.680;2023-08-06T00:08:14;2.60;;;1.63;;
10416;SDS011;62605;49.432;8.680;2023-08-06T00:10:40;2.00;;;1.67;;
10416;SDS011;62605;49.432;8.680;2023-08-06T00:13:07;2.00;;;1.75;;
10416;SDS011;62605;49.432;8.680;2023-08-06T00:15:34;2.35;;;1.45;;
10416;SDS011;62605;49.432;8.680;2023-08-06T00:18:01;2.83;;;1.55;;
10416;SDS011;62605;49.432;8.680;2023-08-06T00:20:28;2.17;;;1.63;;
10416;SDS011;62605;49.432;8.680;2023-08-06T00:22:57;1.95;;;1.50;;
10416;SDS011;62605;49.432;8.680;2023-08-06T00:25:24;1.98;;;1.58;;
10416;SDS011;62605;49.432;8.680;2023-08-06T00:27:51;1.67;;;1.48;;
10416;SDS011;62605;49.432;8.680;2023-08-06T00:30:17;2.42;;;1.75;;
10416;SDS011;62605;49.432;8.680;2023-08-06T00:32:44;2.70;;;1.50;;
10416;SDS011;62605;49.432;8.680;2023-08-06T00:35:12;2.78;;;1.38;;
10416;SDS011;62605;49.432;8.680;2023-08-06T00:37:39;2.10;;;1.40;;
10416;SDS011;62605;49.432;8.680;2023-08-06T00:40:08;2.78;;;1.40;;
10416;SDS011;62605;49.432;8.680;2023-08-06T00:42:35;2.22;;;1.60;;
10416;SDS011;62605;49.432;8.680;2023-08-06T00:45:03;2.47;;;1.48;;
10416;SDS011;62605;49.432;8.680;2023-08-06T00:47:30;3.05;;;1.60;;
10416;SDS011;62605;49.432;8.680;2023-08-06T00:49:57;1.73;;;1.50;;
10416;SDS011;62605;49.432;8.680;2023-08-06T00:52:24;1.65;;;1.48;;
10416;SDS011;62605;49.432;8.680;2023-08-06T00:54:52;1.52;;;1.42;;
10416;SDS011;62605;49.432;8.680;2023-08-06T00:57:20;1.85;;;1.40;;
10416;SDS011;62605;49.432;8.680;2023-08-06T01:28:44;2.67;;;1.63;;
10416;SDS011;62605;49.432;8.680;2023-08-06T05:12:54;2.50;;;0.80;;
10416;SDS011;62605;49.432;8.680;2023-08-06T05:15:22;2.65;;;1.08;;
10416;SDS011;62605;49.432;8.680;2023-08-06T05:26:56;0.75;;;0.75;;
10416;SDS011;62605;49.432;8.680;2023-08-06T05:29:23;0.90;;;0.90;;
10416;SDS011;62605;49.432;8.680;2023-08-06T05:31:52;2.00;;;1.00;;
10416;SDS011;62605;49.432;8.680;2023-08-06T05:34:19;0.93;;;0.80;;
10416;SDS011;62605;49.432;8.680;2023-08-06T05:36:46;1.05;;;0.70;;
10416;SDS011;62605;49.432;8.680;2023-08-06T05:39:13;3.13;;;0.88;;
10416;SDS011;62605;49.432;8.680;2023-08-06T05:41:40;1.38;;;0.90;;
10416;SDS011;62605;49.432;8.680;2023-08-06T05:44:08;2.53;;;0.65;;
10416;SDS011;62605;49.432;8.680;2023-08-06T05:46:35;2.58;;;0.90;;
10416;SDS011;62605;49.432;8.680;2023-08-06T05:49:02;0.40;;;0.40;;
10416;SDS011;62605;49.432;8.680;2023-08-06T05:51:30;1.00;;;0.80;;
10416;SDS011;62605;49.432;8.680;2023-08-06T05:53:57;2.05;;;0.80;;
10416;SDS011;62605;49.432;8.680;2023-08-06T05:56:24;2.27;;;0.70;;
10416;SDS011;62605;49.432;8.680;2023-08-06T05:58:51;5.03;;;0.70;;
10416;SDS011;62605;49.432;8.680;2023-08-06T06:01:19;0.60;;;0.60;;
10416;SDS011;62605;49.432;8.680;2023-08-06T06:03:46;1.73;;;0.80;;
10416;SDS011;62605;49.432;8.680;2023-08-06T06:06:13;1.33;;;0.77;;
10416;SDS011;62605;49.432;8.680;2023-08-06T06:08:41;2.60;;;0.70;;
10416;SDS011;62605;49.432;8.680;2023-08-06T06:11:08;0.80;;;0.80;;
10416;SDS011;62605;49.432;8.680;2023-08-06T06:13:35;2.22;;;0.90;;
10416;SDS011;62605;49.432;8.680;2023-08-06T06:16:02;1.27;;;0.70;;
10416;SDS011;62605;49.432;8.680;2023-08-06T06:18:31;2.92;;;0.90;;
10416;SDS011;62605;49.432;8.680;2023-08-06T06:20:58;1.47;;;0.60;;
10416;SDS011;62605;49.432;8.680;2023-08-06T06:23:25;1.07;;;0.70;;
10416;SDS011;62605;49.432;8.680;2023-08-06T06:25:52;2.17;;;0.70;;
10416;SDS011;62605;49.432;8.680;2023-08-06T06:28:20;1.13;;;0.83;;
10416;SDS011;62605;49.432;8.680;2023-08-06T06:30:48;0.53;;;0.53;;
10416;SDS011;62605;49.432;8.680;2023-08-06T06:33:15;2.23;;;0.63;;
10416;SDS011;62605;49.432;8.680;2023-08-06T06:35:43;1.40;;;0.80;;
10416;SDS011;62605;49.432;8.680;2023-08-06T06:38:10;3.43;;;0.63;;
10416;SDS011;62605;49.432;8.680;2023-08-06T06:40:37;2.50;;;1.20;;
10416;SDS011;62605;49.432;8.680;2023-08-06T06:43:04;0.50;;;0.50;;
10416;SDS011;62605;49.432;8.680;2023-08-06T06:45:31;2.15;;;0.60;;
10416;SDS011;62605;49.432;8.680;2023-08-06T06:47:58;1.87;;;0.77;;
10416;SDS011;62605;49.432;8.680;2023-08-06T06:50:25;0.83;;;0.60;;
10416;SDS011;62605;49.432;8.680;2023-08-06T06:52:53;0.70;;;0.50;;
10416;SDS011;62605;49.432;8.680;2023-08-06T06:55:20;2.17;;;1.10;;
10416;SDS011;62605;49.432;8.680;2023-08-06T06:57:47;0.70;;;0.70;;
10416;SDS011;62605;49.432;8.680;2023-08-06T07:00:14;2.90;;;0.80;;
10416;SDS011;62605;49.432;8.680;2023-08-06T07:02:41;0.80;;;0.40;;
10416;SDS011;62605;49.432;8.680;2023-08-06T07:05:08;1.27;;;0.70;;
10416;SDS011;62605;49.432;8.680;2023-08-06T07:07:35;0.97;;;0.70;;
10416;SDS011;62605;49.432;8.680;2023-08-06T07:10:05;2.10;;;0.70;;
10416;SDS011;62605;49.432;8.680;2023-08-06T07:12:33;0.50;;;0.50;;
10416;SDS011;62605;49.432;8.680;2023-08-06T07:15:02;3.15;;;0.55;;
10416;SDS011;62605;49.432;8.680;2023-08-06T07:17:30;0.65;;;0.65;;
10416;SDS011;62605;49.432;8.680;2023-08-06T07:19:56;0.98;;;0.73;;
10416;SDS011;62605;49.432;8.680;2023-08-06T07:22:23;1.10;;;0.68;;
10416;SDS011;62605;49.432;8.680;2023-08-06T07:24:50;0.50;;;0.50;;
10416;SDS011;62605;49.432;8.680;2023-08-06T07:27:19;1.42;;;0.68;;
10416;SDS011;62605;49.432;8.680;2023-08-06T07:29:46;0.55;;;0.50;;
10416;SDS011;62605;49.432;8.680;2023-08-06T07:32:13;0.80;;;0.60;;
10416;SDS011;62605;49.432;8.680;2023-08-06T07:34:40;1.58;;;0.45;;
10416;SDS011;62605;49.432;8.680;2023-08-06T07:37:07;0.57;;;0.52;;
10416;SDS011;62605;49.432;8.680;2023-08-06T07:39:34;1.58;;;0.57;;
10416;SDS011;62605;49.432;8.680;2023-08-06T07:42:03;0.90;;;0.55;;
10416;SDS011;62605;49.432;8.680;2023-08-06T07:44:33;0.85;;;0.47;;
10416;SDS011;62605;49.432;8.680;2023-08-06T07:47:00;0.43;;;0.40;;
10416;SDS011;62605;49.432;8.680;2023-08-06T07:49:27;1.98;;;1.17;;
10416;SDS011;62605;49.432;8.680;2023-08-06T07:51:54;0.57;;;0.50;;
10416;SDS011;62605;49.432;8.680;2023-08-06T07:54:23;0.40;;;0.40;;
10416;SDS011;62605;49.432;8.680;2023-08-06T07:56:55;0.93;;;0.50;;
10416;SDS011;62605;49.432;8.680;2023-08-06T07:59:22;1.55;;;0.40;;
10416;SDS011;62605;49.432;8.680;2023-08-06T08:01:51;1.45;;;0.30;;
10416;SDS011;62605;49.432;8.680;2023-08-06T08:04:18;0.60;;;0.50;;
10416;SDS011;62605;49.432;8.680;2023-08-06T08:06:46;0.85;;;0.30;;
10416;SDS011;62605;49.432;8.680;2023-08-06T08:09:13;0.35;;;0.35;;
10416;SDS011;62605;49.432;8.680;2023-08-06T08:11:41;0.40;;;0.40;;
10416;SDS011;62605;49.432;8.680;2023-08-06T08:14:08;1.75;;;0.35;;
10416;SDS011;62605;49.432;8.680;2023-08-06T08:16:35;0.52;;;0.45;;
10416;SDS011;62605;49.432;8.680;2023-08-06T08:19:04;0.60;;;0.60;;
10416;SDS011;62605;49.432;8.680;2023-08-06T08:21:31;0.60;;;0.60;;
10416;SDS011;62605;49.432;8.680;2023-08-06T08:23:59;0.50;;;0.43;;
10416;SDS011;62605;49.432;8.680;2023-08-06T08:26:27;1.33;;;0.73;;
10416;SDS011;62605;49.432;8.680;2023-08-06T08:28:54;0.50;;;0.43;;
10416;SDS011;62605;49.432;8.680;2023-08-06T08:31:21;0.73;;;0.50;;
10416;SDS011;62605;49.432;8.680;2023-08-06T08:33:49;0.45;;;0.45;;
10416;SDS011;62605;49.432;8.680;2023-08-06T08:36:17;0.40;;;0.40;;
10416;SDS011;62605;49.432;8.680;2023-08-06T08:38:44;0.35;;;0.35;;
10416;SDS011;62605;49.432;8.680;2023-08-06T08:41:11;0.35;;;0.35;;
10416;SDS011;62605;49.432;8.680;2023-08-06T08:43:38;1.98;;;0.40;;
10416;SDS011;62605;49.432;8.680;2023-08-06T08:46:09;0.30;;;0.30;;
10416;SDS011;62605;49.432;8.680;2023-08-06T08:48:38;0.60;;;0.47;;
10416;SDS011;62605;49.432;8.680;2023-08-06T08:51:05;0.40;;;0.40;;
10416;SDS011;62605;49.432;8.680;2023-08-06T08:53:35;0.60;;;0.60;;
10416;SDS011;62605;49.432;8.680;2023-08-06T08:56:04;1.00;;;0.50;;
10416;SDS011;62605;49.432;8.680;2023-08-06T08:58:32;0.35;;;0.30;;
10416;SDS011;62605;49.432;8.680;2023-08-06T09:00:59;0.30;;;0.30;;
10416;SDS011;62605;49.432;8.680;2023-08-06T09:03:29;0.70;;;0.70;;
10416;SDS011;62605;49.432;8.680;2023-08-06T09:05:59;0.45;;;0.45;;
10416;SDS011;62605;49.432;8.680;2023-08-06T09:08:30;0.38;;;0.38;;
10416;SDS011;62605;49.432;8.680;2023-08-06T09:11:04;0.40;;;0.32;;
10416;SDS011;62605;49.432;8.680;2023-08-06T09:13:35;0.82;;;0.38;;
10416;SDS011;62605;49.432;8.680;2023-08-06T09:16:03;0.35;;;0.35;;
10416;SDS011;62605;49.432;8.680;2023-08-06T09:18:30;0.40;;;0.40;;
10416;SDS011;62605;49.432;8.680;2023-08-06T09:20:57;0.40;;;0.40;;
10416;SDS011;62605;49.432;8.680;2023-08-06T09:23:28;0.30;;;0.30;;
10416;SDS011;62605;49.432;8.680;2023-08-06T09:25:57;0.40;;;0.40;;
10416;SDS011;62605;49.432;8.680;2023-08-06T09:28:24;0.17;;;0.17;;
10416;SDS011;62605;49.432;8.680;2023-08-06T09:31:03;0.20;;;0.20;;
10416;SDS011;62605;49.432;8.680;2023-08-06T09:33:30;0.30;;;0.30;;
10416;SDS011;62605;49.432;8.680;2023-08-06T09:35:57;0.25;;;0.25;;
10416;SDS011;62605;49.432;8.680;2023-08-06T09:38:33;0.30;;;0.30;;
10416;SDS011;62605;49.432;8.680;2023-08-06T09:41:06;0.20;;;0.20;;
10416;SDS011;62605;49.432;8.680;2023-08-06T09:43:39;0.20;;;0.20;;
10416;SDS011;62605;49.432;8.680;2023-08-06T09:46:10;3.33;;;0.38;;
10416;SDS011;62605;49.432;8.680;2023-08-06T09:48:39;0.30;;;0.30;;
10416;SDS011;62605;49.432;8.680;2023-08-06T09:51:08;0.30;;;0.30;;
10416;SDS011;62605;49.432;8.680;2023-08-06T09:53:36;0.30;;;0.30;;
10416;SDS011;62605;49.432;8.680;2023-08-06T09:56:05;0.50;;;0.50;;
10416;SDS011;62605;49.432;8.680;2023-08-06T09:58:32;0.22;;;0.22;;
10416;SDS011;62605;49.432;8.680;2023-08-06T10:01:00;0.40;;;0.40;;
10416;SDS011;62605;49.432;8.680;2023-08-06T10:03:28;0.52;;;0.40;;
10416;SDS011;62605;49.432;8.680;2023-08-06T10:05:56;0.30;;;0.30;;
10416;SDS011;62605;49.432;8.680;2023-08-06T10:08:32;0.30;;;0.30;;
10416;SDS011;62605;49.432;8.680;2023-08-06T10:10:59;0.40;;;0.40;;
10416;SDS011;62605;49.432;8.680;2023-08-06T10:13:30;0.40;;;0.40;;
10416;SDS011;62605;49.432;8.680;2023-08-06T10:15:59;0.22;;;0.22;;
10416;SDS011;62605;49.432;8.680;2023-08-06T10:18:27;0.52;;;0.30;;
10416;SDS011;62605;49.432;8.680;2023-08-06T10:20:58;0.25;;;0.25;;
10416;SDS011;62605;49.432;8.680;2023-08-06T10:23:36;0.30;;;0.30;;
10416;SDS011;62605;49.432;8.680;2023-08-06T10:26:09;0.30;;;0.30;;
10416;SDS011;62605;49.432;8.680;2023-08-06T10:28:40;0.38;;;0.30;;
10416;SDS011;62605;49.432;8.680;2023-08-06T10:31:08;0.43;;;0.30;;
10416;SDS011;62605;49.432;8.680;2023-08-06T10:33:42;0.30;;;0.30;;
10416;SDS011;62605;49.432;8.680;2023-08-06T10:36:09;0.30;;;0.30;;
10416;SDS011;62605;49.432;8.680;2023-08-06T10:38:43;0.30;;;0.30;;
10416;SDS011;62605;49.432;8.680;2023-08-06T10:41:15;0.40;;;0.40;;
10416;SDS011;62605;49.432;8.680;2023-08-06T10:43:44;0.47;;;0.47;;
10416;SDS011;62605;49.432;8.680;2023-08-06T10:46:21;0.40;;;0.30;;
10416;SDS011;62605;49.432;8.680;2023-08-06T10:48:49;0.40;;;0.40;;
10416;SDS011;62605;49.432;8.680;2023-08-06T10:51:16;0.40;;;0.40;;
10416;SDS011;62605;49.432;8.680;2023-08-06T10:53:44;0.23;;;0.23;;
10416;SDS011;62605;49.432;8.680;2023-08-06T10:56:12;0.40;;;0.40;;
10416;SDS011;62605;49.432;8.680;2023-08-06T10:58:43;0.40;;;0.40;;
10416;SDS011;62605;49.432;8.680;2023-08-06T11:01:12;0.40;;;0.40;;
10416;SDS011;62605;49.432;8.680;2023-08-06T11:03:40;0.80;;;0.60;;
10416;SDS011;62605;49.432;8.680;2023-08-06T11:06:08;0.30;;;0.30;;
10416;SDS011;62605;49.432;8.680;2023-08-06T11:08:37;0.30;;;0.30;;
10416;SDS011;62605;49.432;8.680;2023-08-06T11:11:08;0.20;;;0.20;;
10416;SDS011;62605;49.432;8.680;2023-08-06T11:13:38;0.20;;;0.20;;
10416;SDS011;62605;49.432;8.680;2023-08-06T11:16:08;0.40;;;0.23;;
10416;SDS011;62605;49.432;8.680;2023-08-06T11:18:36;0.33;;;0.33;;
10416;SDS011;62605;49.432;8.680;2023-08-06T11:21:04;0.67;;;0.67;;
10416;SDS011;62605;49.432;8.680;2023-08-06T11:23:33;0.30;;;0.30;;
10416;SDS011;62605;49.432;8.680;2023-08-06T11:26:02;0.40;;;0.40;;
10416;SDS011;62605;49.432;8.680;2023-08-06T11:28:30;0.33;;;0.33;;
10416;SDS011;62605;49.432;8.680;2023-08-06T11:30:59;0.50;;;0.50;;
10416;SDS011;62605;49.432;8.680;2023-08-06T11:33:33;0.30;;;0.30;;
10416;SDS011;62605;49.432;8.680;2023-08-06T11:36:06;0.47;;;0.30;;
10416;SDS011;62605;49.432;8.680;2023-08-06T11:38:34;0.97;;;0.60;;
10416;SDS011;62605;49.432;8.680;2023-08-06T11:41:03;0.63;;;0.63;;
10416;SDS011;62605;49.432;8.680;2023-08-06T11:43:32;0.60;;;0.53;;
10416;SDS011;62605;49.432;8.680;2023-08-06T11:46:01;0.67;;;0.50;;
10416;SDS011;62605;49.432;8.680;2023-08-06T11:48:33;0.50;;;0.50;;
10416;SDS011;62605;49.432;8.680;2023-08-06T11:51:22;0.40;;;0.40;;
10416;SDS011;62605;49.432;8.680;2023-08-06T11:53:51;0.67;;;0.30;;
10416;SDS011;62605;49.432;8.680;2023-08-06T11:56:22;4.30;;;0.70;;
10416;SDS011;62605;49.432;8.680;2023-08-06T11:58:52;0.50;;;0.50;;
10416;SDS011;62605;49.432;8.680;2023-08-06T12:01:21;1.13;;;0.50;;
10416;SDS011;62605;49.432;8.680;2023-08-06T12:03:49;0.53;;;0.50;;
10416;SDS011;62605;49.432;8.680;2023-08-06T12:06:16;0.40;;;0.40;;
10416;SDS011;62605;49.432;8.680;2023-08-06T12:08:44;2.30;;;0.60;;
10416;SDS011;62605;49.432;8.680;2023-08-06T12:11:13;0.40;;;0.40;;
10416;SDS011;62605;49.432;8.680;2023-08-06T12:13:40;0.70;;;0.70;;
10416;SDS011;62605;49.432;8.680;2023-08-06T12:16:07;0.70;;;0.70;;
10416;SDS011;62605;49.432;8.680;2023-08-06T12:18:34;2.03;;;0.80;;
10416;SDS011;62605;49.432;8.680;2023-08-06T12:21:03;0.83;;;0.70;;
10416;SDS011;62605;49.432;8.680;2023-08-06T12:23:30;1.02;;;0.63;;
10416;SDS011;62605;49.432;8.680;2023-08-06T12:25:58;1.63;;;0.90;;
10416;SDS011;62605;49.432;8.680;2023-08-06T12:28:25;0.93;;;0.70;;
10416;SDS011;62605;49.432;8.680;2023-08-06T12:30:52;1.13;;;0.65;;
10416;SDS011;62605;49.432;8.680;2023-08-06T12:33:20;0.60;;;0.60;;
10416;SDS011;62605;49.432;8.680;2023-08-06T12:35:47;0.70;;;0.70;;
10416;SDS011;62605;49.432;8.680;2023-08-06T12:38:16;0.47;;;0.47;;
10416;SDS011;62605;49.432;8.680;2023-08-06T12:40:43;1.48;;;0.60;;
10416;SDS011;62605;49.432;8.680;2023-08-06T12:43:10;0.45;;;0.45;;
10416;SDS011;62605;49.432;8.680;2023-08-06T12:45:38;0.50;;;0.50;;
10416;SDS011;62605;49.432;8.680;2023-08-06T12:48:05;1.75;;;0.70;;
10416;SDS011;62605;49.432;8.680;2023-08-06T12:50:32;0.70;;;0.70;;
10416;SDS011;62605;49.432;8.680;2023-08-06T12:52:59;1.80;;;0.60;;
10416;SDS011;62605;49.432;8.680;2023-08-06T12:55:28;0.80;;;0.80;;
10416;SDS011;62605;49.432;8.680;2023-08-06T12:57:55;0.52;;;0.52;;
10416;SDS011;62605;49.432;8.680;2023-08-06T13:00:22;0.45;;;0.40;;
10416;SDS011;62605;49.432;8.680;2023-08-06T13:02:49;0.40;;;0.40;;
10416;SDS011;62605;49.432;8.680;2023-08-06T13:05:16;0.57;;;0.57;;
10416;SDS011;62605;49.432;8.680;2023-08-06T13:07:43;0.70;;;0.55;;
10416;SDS011;62605;49.432;8.680;2023-08-06T13:10:10;0.40;;;0.40;;
10416;SDS011;62605;49.432;8.680;2023-08-06T13:12:39;0.75;;;0.55;;
10416;SDS011;62605;49.432;8.680;2023-08-06T13:15:06;0.63;;;0.60;;
10416;SDS011;62605;49.432;8.680;2023-08-06T13:17:34;1.15;;;0.50;;
10416;SDS011;62605;49.432;8.680;2023-08-06T13:20:01;0.35;;;0.35;;
10416;SDS011;62605;49.432;8.680;2023-08-06T13:22:29;0.50;;;0.40;;
10416;SDS011;62605;49.432;8.680;2023-08-06T13:24:56;0.68;;;0.50;;
10416;SDS011;62605;49.432;8.680;2023-08-06T13:27:23;1.17;;;0.60;;
10416;SDS011;62605;49.432;8.680;2023-08-06T13:29:51;0.60;;;0.60;;
10416;SDS011;62605;49.432;8.680;2023-08-06T13:32:18;0.50;;;0.50;;
10416;SDS011;62605;49.432;8.680;2023-08-06T13:34:45;2.33;;;0.60;;
10416;SDS011;62605;49.432;8.680;2023-08-06T13:37:12;0.60;;;0.60;;
10416;SDS011;62605;49.432;8.680;2023-08-06T13:39:39;0.85;;;0.60;;
10416;SDS011;62605;49.432;8.680;2023-08-06T13:42:06;0.68;;;0.68;;
10416;SDS011;62605;49.432;8.680;2023-08-06T13:44:34;0.50;;;0.40;;
10416;SDS011;62605;49.432;8.680;2023-08-06T13:47:03;0.57;;;0.57;;
10416;SDS011;62605;49.432;8.680;2023-08-06T13:49:30;0.75;;;0.60;;
10416;SDS011;62605;49.432;8.680;2023-08-06T13:51:57;0.50;;;0.50;;
10416;SDS011;62605;49.432;8.680;2023-08-06T13:54:24;0.50;;;0.50;;
10416;SDS011;62605;49.432;8.680;2023-08-06T13:56:51;0.90;;;0.90;;
10416;SDS011;62605;49.432;8.680;2023-08-06T13:59:18;0.40;;;0.40;;
10416;SDS011;62605;49.432;8.680;2023-08-06T14:01:45;0.50;;;0.50;;
10416;SDS011;62605;49.432;8.680;2023-08-06T14:04:14;0.90;;;0.50;;
10416;SDS011;62605;49.432;8.680;2023-08-06T14:06:41;1.50;;;0.60;;
10416;SDS011;62605;49.432;8.680;2023-08-06T14:09:08;0.50;;;0.50;;
10416;SDS011;62605;49.432;8.680;2023-08-06T14:11:37;0.47;;;0.43;;
10416;SDS011;62605;49.432;8.680;2023-08-06T14:14:04;0.60;;;0.60;;
10416;SDS011;62605;49.432;8.680;2023-08-06T14:16:32;1.10;;;0.70;;
10416;SDS011;62605;49.432;8.680;2023-08-06T14:18:59;0.50;;;0.50;;
10416;SDS011;62605;49.432;8.680;2023-08-06T14:21:28;0.60;;;0.60;;
10416;SDS011;62605;49.432;8.680;2023-08-06T14:23:55;1.30;;;1.00;;
10416;SDS011;62605;49.432;8.680;2023-08-06T14:26:22;1.10;;;1.00;;
10416;SDS011;62605;49.432;8.680;2023-08-06T14:28:50;0.97;;;0.90;;
10416;SDS011;62605;49.432;8.680;2023-08-06T14:31:19;0.70;;;0.70;;
10416;SDS011;62605;49.432;8.680;2023-08-06T14:33:46;1.47;;;1.13;;
10416;SDS011;62605;49.432;8.680;2023-08-06T14:36:13;0.77;;;0.77;;
10416;SDS011;62605;49.432;8.680;2023-08-06T14:38:42;1.00;;;0.65;;
10416;SDS011;62605;49.432;8.680;2023-08-06T14:41:09;0.85;;;0.57;;
10416;SDS011;62605;49.432;8.680;2023-08-06T14:43:36;0.73;;;0.73;;
10416;SDS011;62605;49.432;8.680;2023-08-06T14:46:03;2.10;;;0.97;;
10416;SDS011;62605;49.432;8.680;2023-08-06T14:48:30;0.80;;;0.70;;
10416;SDS011;62605;49.432;8.680;2023-08-06T14:50:58;0.70;;;0.70;;
10416;SDS011;62605;49.432;8.680;2023-08-06T14:53:26;0.70;;;0.70;;
10416;SDS011;62605;49.432;8.680;2023-08-06T14:55:54;0.77;;;0.77;;
10416;SDS011;62605;49.432;8.680;2023-08-06T14:58:21;0.87;;;0.70;;
10416;SDS011;62605;49.432;8.680;2023-08-06T15:00:48;1.05;;;0.70;;
10416;SDS011;62605;49.432;8.680;2023-08-06T15:03:15;0.65;;;0.65;;
10416;SDS011;62605;49.432;8.680;2023-08-06T15:05:43;0.85;;;0.80;;
10416;SDS011;62605;49.432;8.680;2023-08-06T15:08:10;0.90;;;0.80;;
10416;SDS011;62605;49.432;8.680;2023-08-06T15:10:37;0.90;;;0.77;;
10416;SDS011;62605;49.432;8.680;2023-08-06T15:13:06;0.63;;;0.63;;
10416;SDS011;62605;49.432;8.680;2023-08-06T15:15:33;2.25;;;1.05;;
10416;SDS011;62605;49.432;8.680;2023-08-06T15:18:00;0.93;;;0.60;;
10416;SDS011;62605;49.432;8.680;2023-08-06T15:20:27;0.75;;;0.75;;
10416;SDS011;62605;49.432;8.680;2023-08-06T15:22:54;0.75;;;0.75;;
10416;SDS011;62605;49.432;8.680;2023-08-06T15:25:23;1.10;;;1.00;;
10416;SDS011;62605;49.432;8.680;2023-08-06T15:27:50;0.82;;;0.70;;
10416;SDS011;62605;49.432;8.680;2023-08-06T15:30:19;0.60;;;0.60;;
10416;SDS011;62605;49.432;8.680;2023-08-06T15:32:46;0.93;;;0.80;;
10416;SDS011;62605;49.432;8.680;2023-08-06T15:35:13;0.98;;;0.55;;
10416;SDS011;62605;49.432;8.680;2023-08-06T15:37:41;1.40;;;0.70;;
10416;SDS011;62605;49.432;8.680;2023-08-06T15:40:08;0.93;;;0.73;;
10416;SDS011;62605;49.432;8.680;2023-08-06T15:42:36;0.60;;;0.60;;
10416;SDS011;62605;49.432;8.680;2023-08-06T15:45:03;0.97;;;0.93;;
10416;SDS011;62605;49.432;8.680;2023-08-06T15:47:32;1.67;;;0.90;;
10416;SDS011;62605;49.432;8.680;2023-08-06T15:50:05;2.53;;;1.10;;
10416;SDS011;62605;49.432;8.680;2023-08-06T15:52:33;3.70;;;1.10;;
10416;SDS011;62605;49.432;8.680;2023-08-06T15:55:00;1.00;;;1.00;;
10416;SDS011;62605;49.432;8.680;2023-08-06T15:57:30;0.90;;;0.90;;
10416;SDS011;62605;49.432;8.680;2023-08-06T15:59:57;0.95;;;0.88;;
10416;SDS011;62605;49.432;8.680;2023-08-06T16:02:24;0.77;;;0.77;;
10416;SDS011;62605;49.432;8.680;2023-08-06T16:04:54;1.13;;;0.75;;
10416;SDS011;62605;49.432;8.680;2023-08-06T16:07:21;0.55;;;0.55;;
10416;SDS011;62605;49.432;8.680;2023-08-06T16:09:49;0.70;;;0.70;;
10416;SDS011;62605;49.432;8.680;2023-08-06T16:12:17;0.70;;;0.68;;
10416;SDS011;62605;49.432;8.680;2023-08-06T16:14:45;0.65;;;0.63;;
10416;SDS011;62605;49.432;8.680;2023-08-06T16:17:12;0.40;;;0.40;;
10416;SDS011;62605;49.432;8.680;2023-08-06T16:19:39;1.30;;;0.50;;
10416;SDS011;62605;49.432;8.680;2023-08-06T16:22:08;0.47;;;0.40;;
10416;SDS011;62605;49.432;8.680;2023-08-06T16:24:36;0.55;;;0.55;;
10416;SDS011;62605;49.432;8.680;2023-08-06T16:27:03;2.13;;;0.70;;
10416;SDS011;62605;49.432;8.680;2023-08-06T16:29:30;0.70;;;0.70;;
10416;SDS011;62605;49.432;8.680;2023-08-06T16:31:59;0.70;;;0.70;;
10416;SDS011;62605;49.432;8.680;2023-08-06T16:34:26;0.65;;;0.60;;
10416;SDS011;62605;49.432;8.680;2023-08-06T16:36:53;0.57;;;0.57;;
10416;SDS011;62605;49.432;8.680;2023-08-06T16:39:22;0.50;;;0.50;;
10416;SDS011;62605;49.432;8.680;2023-08-06T16:41:51;0.50;;;0.50;;
10416;SDS011;62605;49.432;8.680;2023-08-06T16:44:18;0.95;;;0.82;;
10416;SDS011;62605;49.432;8.680;2023-08-06T16:46:45;1.48;;;0.70;;
10416;SDS011;62605;49.432;8.680;2023-08-06T16:49:12;0.60;;;0.60;;
10416;SDS011;62605;49.432;8.680;2023-08-06T16:51:39;2.10;;;0.52;;
10416;SDS011;62605;49.432;8.680;2023-08-06T16:54:06;0.63;;;0.63;;
10416;SDS011;62605;49.432;8.680;2023-08-06T16:56:35;0.40;;;0.40;;
10416;SDS011;62605;49.432;8.680;2023-08-06T16:59:02;0.88;;;0.60;;
10416;SDS011;62605;49.432;8.680;2023-08-06T17:01:29;0.77;;;0.77;;
10416;SDS011;62605;49.432;8.680;2023-08-06T17:03:56;0.45;;;0.45;;
10416;SDS011;62605;49.432;8.680;2023-08-06T17:06:23;0.70;;;0.60;;
10416;SDS011;62605;49.432;8.680;2023-08-06T17:08:50;0.47;;;0.47;;
10416;SDS011;62605;49.432;8.680;2023-08-06T17:11:17;0.68;;;0.68;;
10416;SDS011;62605;49.432;8.680;2023-08-06T17:13:46;1.87;;;0.80;;
10416;SDS011;62605;49.432;8.680;2023-08-06T17:16:13;1.27;;;0.60;;
10416;SDS011;62605;49.432;8.680;2023-08-06T17:18:41;1.73;;;0.50;;
10416;SDS011;62605;49.432;8.680;2023-08-06T17:21:08;0.60;;;0.60;;
10416;SDS011;62605;49.432;8.680;2023-08-06T17:23:36;0.67;;;0.67;;
10416;SDS011;62605;49.432;8.680;2023-08-06T17:26:03;0.70;;;0.70;;
10416;SDS011;62605;49.432;8.680;2023-08-06T17:28:30;0.67;;;0.60;;
10416;SDS011;62605;49.432;8.680;2023-08-06T17:30:58;0.60;;;0.60;;
10416;SDS011;62605;49.432;8.680;2023-08-06T17:33:25;1.07;;;0.87;;
10416;SDS011;62605;49.432;8.680;2023-08-06T17:35:52;0.77;;;0.77;;
10416;SDS011;62605;49.432;8.680;2023-08-06T17:38:19;0.83;;;0.83;;
10416;SDS011;62605;49.432;8.680;2023-08-06T17:40:52;0.70;;;0.70;;
10416;SDS011;62605;49.432;8.680;2023-08-06T17:43:19;0.80;;;0.70;;
10416;SDS011;62605;49.432;8.680;2023-08-06T17:45:46;0.50;;;0.50;;
10416;SDS011;62605;49.432;8.680;2023-08-06T17:48:15;1.07;;;0.70;;
10416;SDS011;62605;49.432;8.680;2023-08-06T17:50:43;0.67;;;0.67;;
10416;SDS011;62605;49.432;8.680;2023-08-06T17:53:11;0.50;;;0.50;;
10416;SDS011;62605;49.432;8.680;2023-08-06T17:55:38;0.80;;;0.80;;
10416;SDS011;62605;49.432;8.680;2023-08-06T17:58:05;1.20;;;0.87;;
10416;SDS011;62605;49.432;8.680;2023-08-06T18:00:32;0.70;;;0.70;;
10416;SDS011;62605;49.432;8.680;2023-08-06T18:02:59;0.75;;;0.70;;
10416;SDS011;62605;49.432;8.680;2023-08-06T18:05:28;0.67;;;0.67;;
10416;SDS011;62605;49.432;8.680;2023-08-06T18:07:56;0.67;;;0.67;;
10416;SDS011;62605;49.432;8.680;2023-08-06T18:10:23;0.70;;;0.60;;
10416;SDS011;62605;49.432;8.680;2023-08-06T18:12:50;0.70;;;0.70;;
10416;SDS011;62605;49.432;8.680;2023-08-06T18:15:17;1.40;;;0.90;;
10416;SDS011;62605;49.432;8.680;2023-08-06T18:17:45;1.00;;;0.70;;
10416;SDS011;62605;49.432;8.680;2023-08-06T18:20:13;0.77;;;0.77;;
10416;SDS011;62605;49.432;8.680;2023-08-06T18:22:41;1.27;;;0.87;;
10416;SDS011;62605;49.432;8.680;2023-08-06T18:25:08;1.40;;;0.70;;
10416;SDS011;62605;49.432;8.680;2023-08-06T18:27:35;0.70;;;0.70;;
10416;SDS011;62605;49.432;8.680;2023-08-06T18:30:03;0.60;;;0.60;;
10416;SDS011;62605;49.432;8.680;2023-08-06T18:32:31;2.25;;;0.60;;
10416;SDS011;62605;49.432;8.680;2023-08-06T18:34:58;0.60;;;0.60;;
10416;SDS011;62605;49.432;8.680;2023-08-06T18:37:25;0.70;;;0.70;;
10416;SDS011;62605;49.432;8.680;2023-08-06T18:39:53;1.45;;;0.70;;
10416;SDS011;62605;49.432;8.680;2023-08-06T18:42:26;1.83;;;1.30;;
10416;SDS011;62605;49.432;8.680;2023-08-06T18:44:53;2.83;;;1.17;;
10416;SDS011;62605;49.432;8.680;2023-08-06T18:47:21;0.80;;;0.60;;
10416;SDS011;62605;49.432;8.680;2023-08-06T18:49:48;2.33;;;0.70;;
10416;SDS011;62605;49.432;8.680;2023-08-06T18:52:15;1.47;;;0.60;;
10416;SDS011;62605;49.432;8.680;2023-08-06T18:54:42;2.43;;;0.70;;
10416;SDS011;62605;49.432;8.680;2023-08-06T18:57:10;1.17;;;1.00;;
10416;SDS011;62605;49.432;8.680;2023-08-06T18:59:37;0.70;;;0.70;;
10416;SDS011;62605;49.432;8.680;2023-08-06T19:02:05;2.30;;;0.70;;
10416;SDS011;62605;49.432;8.680;2023-08-06T19:04:32;0.60;;;0.60;;
10416;SDS011;62605;49.432;8.680;2023-08-06T19:07:00;0.70;;;0.70;;
10416;SDS011;62605;49.432;8.680;2023-08-06T19:09:27;2.00;;;1.80;;
10416;SDS011;62605;49.432;8.680;2023-08-06T19:11:54;0.70;;;0.70;;